createdAt,value
2023-01-15T00:01:42.471Z,67.16
2023-01-15T00:04:12.097Z,66.32
2023-01-15T00:06:41.286Z,66.63
2023-01-15T00:09:09.249Z,66.95
2023-01-15T00:11:35.735Z,66.42
2023-01-15T00:14:02.297Z,66.25
2023-01-15T00:16:29.104Z,66.49
2023-01-15T00:18:58.047Z,66.43
2023-01-15T00:21:26.161Z,66.76
2023-01-15T00:24:11.844Z,66.21
2023-01-15T00:26:58.293Z,65.40
2023-01-15T00:29:25.867Z,66.52
2023-01-15T00:31:58.852Z,65.59
2023-01-15T00:34:26.465Z,66.24
2023-01-15T00:36:53.075Z,66.41
2023-01-15T00:39:20.500Z,66.57
2023-01-15T00:41:47.552Z,66.04
2023-01-15T00:44:14.337Z,66.57
2023-01-15T00:46:40.996Z,66.25
2023-01-15T00:49:08.107Z,66.26
2023-01-15T00:51:34.920Z,65.93
2023-01-15T00:54:01.792Z,65.84
2023-01-15T00:56:28.393Z,65.45
2023-01-15T00:58:55.152Z,66.13
2023-01-15T01:01:22.036Z,65.82
2023-01-15T01:03:50.203Z,65.95
2023-01-15T01:06:17.141Z,65.87
2023-01-15T01:08:46.135Z,65.58
2023-01-15T01:11:15.569Z,66.23
2023-01-15T01:13:42.351Z,65.77
2023-01-15T01:16:22.656Z,66.00
2023-01-15T01:18:49.255Z,65.53
2023-01-15T01:21:15.804Z,65.19
2023-01-15T01:23:42.321Z,65.74
2023-01-15T01:26:09.819Z,65.55
2023-01-15T01:28:36.530Z,66.31
2023-01-15T01:31:07.959Z,65.71
2023-01-15T01:33:35.020Z,66.22
2023-01-15T01:36:01.940Z,66.05
2023-01-15T01:38:28.485Z,65.98
2023-01-15T01:40:55.110Z,66.36
2023-01-15T01:43:24.330Z,66.12
2023-01-15T01:45:50.984Z,66.83
2023-01-15T01:48:21.342Z,66.56
2023-01-15T01:50:50.475Z,66.57
2023-01-15T01:53:21.679Z,66.80
2023-01-15T01:55:50.457Z,67.30
2023-01-15T01:58:19.874Z,66.18
2023-01-15T02:00:48.273Z,67.11
2023-01-15T02:03:15.399Z,67.79
2023-01-15T02:05:48.992Z,66.79
2023-01-15T02:08:15.715Z,66.08
2023-01-15T02:10:42.445Z,67.20
2023-01-15T02:13:24.494Z,67.21
2023-01-15T02:16:03.046Z,66.54
2023-01-15T02:18:36.417Z,66.17
2023-01-15T02:21:28.745Z,65.70
2023-01-15T02:24:11.543Z,65.85
2023-01-15T02:26:54.646Z,65.89
2023-01-15T02:29:32.246Z,65.77
2023-01-15T02:32:02.536Z,65.84
2023-01-15T02:34:34.452Z,65.74
2023-01-15T02:37:06.866Z,65.53
2023-01-15T02:39:36.746Z,65.29
2023-01-15T02:42:06.020Z,65.28
2023-01-15T02:44:36.243Z,65.37
2023-01-15T02:47:05.651Z,65.77
2023-01-15T02:49:33.126Z,66.21
2023-01-15T02:52:07.414Z,65.84
2023-01-15T02:54:45.313Z,65.80
2023-01-15T02:57:13.639Z,65.69
2023-01-15T02:59:44.065Z,65.12
2023-01-15T03:02:20.260Z,65.71
2023-01-15T03:04:58.805Z,65.21
2023-01-15T03:07:31.768Z,65.35
2023-01-15T03:09:58.952Z,65.30
2023-01-15T03:13:02.462Z,65.24
2023-01-15T03:16:03.329Z,65.84
2023-01-15T03:18:37.296Z,65.88
2023-01-15T03:21:10.199Z,65.64
2023-01-15T03:23:40.084Z,66.44
2023-01-15T03:26:06.756Z,65.66
2023-01-15T03:28:36.698Z,65.94
2023-01-15T03:31:03.362Z,65.24
2023-01-15T03:33:30.334Z,64.56
2023-01-15T03:35:59.110Z,65.24
2023-01-15T03:38:30.034Z,65.79
2023-01-15T03:41:15.223Z,65.13
2023-01-15T03:44:07.390Z,66.84
2023-01-15T03:46:46.096Z,66.90
2023-01-15T03:49:26.686Z,67.99
2023-01-15T03:52:04.255Z,68.98
2023-01-15T03:54:49.075Z,69.56
2023-01-15T03:57:21.508Z,67.40
2023-01-15T03:59:55.695Z,68.50
2023-01-15T04:02:24.522Z,67.56
2023-01-15T04:04:53.472Z,66.90
2023-01-15T04:07:21.130Z,67.52
2023-01-15T04:09:48.416Z,68.65
2023-01-15T04:12:14.969Z,68.56
2023-01-15T04:14:41.648Z,68.05
2023-01-15T04:17:08.552Z,67.88
2023-01-15T04:19:35.060Z,68.20
2023-01-15T04:22:01.645Z,68.83
2023-01-15T04:24:28.203Z,69.71
2023-01-15T04:26:54.745Z,68.70
2023-01-15T04:29:21.442Z,70.04
2023-01-15T04:31:48.020Z,70.30
2023-01-15T04:34:14.578Z,70.77
2023-01-15T04:36:42.592Z,69.99
2023-01-15T04:39:10.296Z,70.82
2023-01-15T04:41:55.337Z,70.32
2023-01-15T04:44:21.920Z,70.43
2023-01-15T04:46:48.709Z,71.65
2023-01-15T04:49:17.532Z,71.94
2023-01-15T04:51:44.808Z,71.81
2023-01-15T04:54:13.652Z,72.24
2023-01-15T04:56:43.111Z,71.84
2023-01-15T04:59:09.626Z,71.62
2023-01-15T05:01:37.078Z,70.90
2023-01-15T05:04:04.301Z,71.21
2023-01-15T05:06:34.043Z,71.64
2023-01-15T05:09:01.602Z,72.15
2023-01-15T05:11:28.857Z,72.03
2023-01-15T05:13:55.907Z,71.74
2023-01-15T05:16:25.123Z,72.11
2023-01-15T05:18:53.636Z,72.17
2023-01-15T05:21:25.698Z,72.25
2023-01-15T05:23:54.782Z,72.02
2023-01-15T05:26:22.371Z,71.66
2023-01-15T05:28:49.833Z,71.08
2023-01-15T05:31:18.748Z,71.16
2023-01-15T05:33:47.449Z,70.56
2023-01-15T05:36:16.489Z,71.50
2023-01-15T05:38:43.469Z,70.87
2023-01-15T05:41:31.113Z,70.46
2023-01-15T05:44:01.780Z,71.56
2023-01-15T05:46:28.955Z,70.86
2023-01-15T05:49:00.425Z,70.69
2023-01-15T05:51:26.994Z,69.72
2023-01-15T05:53:53.502Z,69.40
2023-01-15T05:56:20.039Z,68.29
2023-01-15T05:58:47.295Z,68.85
2023-01-15T06:01:14.091Z,67.43
2023-01-15T06:03:41.807Z,67.10
2023-01-15T06:06:13.273Z,67.66
2023-01-15T06:08:39.876Z,68.00
2023-01-15T06:11:07.286Z,66.96
2023-01-15T06:13:34.568Z,67.44
2023-01-15T06:16:01.870Z,66.91
2023-01-15T06:18:28.572Z,66.15
2023-01-15T06:20:55.127Z,66.08
2023-01-15T06:23:21.682Z,65.87
2023-01-15T06:25:48.208Z,65.33
2023-01-15T06:28:14.769Z,66.16
2023-01-15T06:30:41.317Z,66.06
2023-01-15T06:33:07.847Z,65.47
2023-01-15T06:35:35.531Z,65.68
2023-01-15T06:38:02.035Z,74.60
2023-01-15T06:40:29.154Z,79.17
2023-01-15T06:43:17.757Z,81.34
2023-01-15T06:46:03.265Z,82.62
2023-01-15T06:48:29.826Z,83.09
2023-01-15T06:50:56.715Z,83.93
2023-01-15T06:53:23.342Z,84.72
2023-01-15T06:55:49.873Z,85.19
2023-01-15T06:58:16.756Z,84.96
2023-01-15T07:00:44.926Z,87.23
2023-01-15T07:03:14.320Z,86.88
2023-01-15T07:05:41.449Z,87.75
2023-01-15T07:08:08.132Z,87.70
2023-01-15T07:10:35.540Z,88.19
2023-01-15T07:13:02.301Z,88.36
2023-01-15T07:15:29.029Z,89.09
2023-01-15T07:17:56.349Z,88.40
2023-01-15T07:20:23.290Z,88.21
2023-01-15T07:22:51.404Z,88.87
2023-01-15T07:25:18.082Z,87.76
2023-01-15T07:27:47.630Z,87.92
2023-01-15T07:30:14.628Z,87.56
2023-01-15T07:32:41.541Z,87.54
2023-01-15T07:35:10.067Z,87.43
2023-01-15T07:37:37.806Z,87.46
2023-01-15T07:40:04.825Z,87.32
2023-01-15T07:42:49.943Z,87.47
2023-01-15T07:45:35.266Z,87.04
2023-01-15T07:48:20.509Z,86.63
2023-01-15T07:50:47.074Z,87.24
2023-01-15T07:53:13.614Z,86.93
2023-01-15T07:55:40.131Z,87.29
2023-01-15T07:58:06.647Z,86.75
2023-01-15T08:00:33.173Z,86.92
2023-01-15T08:02:59.748Z,87.26
2023-01-15T08:05:26.301Z,87.08
2023-01-15T08:07:52.947Z,88.40
2023-01-15T08:10:19.925Z,88.53
2023-01-15T08:13:08.033Z,87.93
2023-01-15T08:15:39.218Z,88.09
2023-01-15T08:18:05.904Z,88.24
2023-01-15T08:20:34.954Z,88.52
2023-01-15T08:23:02.025Z,89.44
2023-01-15T08:25:28.537Z,89.37
2023-01-15T08:27:55.514Z,89.13
2023-01-15T08:30:24.567Z,89.54
2023-01-15T08:32:51.507Z,89.43
2023-01-15T08:35:18.153Z,88.93
2023-01-15T08:37:44.695Z,89.43
2023-01-15T08:40:12.765Z,89.60
2023-01-15T08:42:39.352Z,88.72
2023-01-15T08:45:06.520Z,89.86
2023-01-15T08:47:33.379Z,88.54
2023-01-15T08:49:59.895Z,87.82
2023-01-15T08:52:26.499Z,89.29
2023-01-15T08:54:53.011Z,89.08
2023-01-15T08:57:19.521Z,89.33
2023-01-15T08:59:47.911Z,89.42
2023-01-15T09:02:15.633Z,89.55
2023-01-15T09:04:42.477Z,89.60
2023-01-15T09:07:09.214Z,90.09
2023-01-15T09:09:35.903Z,89.73
2023-01-15T09:12:02.651Z,90.28
2023-01-15T09:14:55.359Z,89.63
2023-01-15T09:17:15.745Z,89.76
2023-01-15T09:19:42.308Z,90.22
2023-01-15T09:22:08.854Z,89.86
2023-01-15T09:24:35.381Z,89.55
2023-01-15T09:27:01.890Z,88.70
2023-01-15T09:29:28.419Z,88.34
2023-01-15T09:31:55.012Z,88.60
2023-01-15T09:34:21.640Z,88.45
2023-01-15T09:36:48.152Z,87.69
2023-01-15T09:39:14.665Z,86.68
2023-01-15T09:42:12.808Z,86.02
2023-01-15T09:45:16.281Z,86.71
2023-01-15T09:47:54.786Z,84.60
2023-01-15T09:50:34.812Z,85.37
2023-01-15T09:53:37.672Z,85.58
2023-01-15T09:56:05.308Z,85.26
2023-01-15T09:58:36.393Z,86.31
2023-01-15T10:01:03.433Z,86.13
2023-01-15T10:03:47.755Z,86.20
2023-01-15T10:06:20.613Z,87.30
2023-01-15T10:08:50.421Z,86.85
2023-01-15T10:11:22.590Z,85.88
2023-01-15T10:13:54.866Z,86.41
2023-01-15T10:16:31.527Z,85.54
2023-01-15T10:19:02.492Z,85.24
2023-01-15T10:21:54.355Z,85.82
2023-01-15T10:24:26.446Z,85.65
2023-01-15T10:27:00.009Z,84.54
2023-01-15T10:29:54.254Z,84.96
2023-01-15T10:32:30.197Z,84.39
2023-01-15T10:35:34.543Z,84.19
2023-01-15T10:38:20.384Z,82.96
2023-01-15T10:40:49.899Z,83.58
2023-01-15T10:43:39.459Z,81.67
2023-01-15T10:46:14.222Z,81.83
2023-01-15T10:48:50.631Z,80.42
2023-01-15T10:51:26.924Z,79.70
2023-01-15T10:54:12.305Z,78.71
2023-01-15T10:57:18.784Z,78.43
2023-01-15T11:00:00.200Z,78.24
2023-01-15T11:02:50.291Z,75.37
2023-01-15T11:05:20.675Z,74.23
2023-01-15T11:10:41.500Z,73.69
2023-01-15T11:13:40.443Z,73.21
2023-01-15T11:16:36.591Z,72.80
2023-01-15T11:19:24.473Z,73.46
2023-01-15T11:21:53.810Z,74.24
2023-01-15T11:24:20.956Z,72.99
2023-01-15T11:26:52.829Z,74.72
2023-01-15T11:29:33.972Z,74.11
2023-01-15T11:32:00.547Z,75.67
2023-01-15T11:34:27.118Z,74.20
2023-01-15T11:37:05.369Z,74.17
2023-01-15T11:39:32.254Z,75.70
2023-01-15T11:42:22.947Z,75.77
2023-01-15T11:45:12.825Z,77.37
2023-01-15T11:47:57.977Z,77.03
2023-01-15T11:50:43.357Z,77.31
2023-01-15T11:53:20.119Z,78.16
2023-01-15T11:56:01.982Z,75.67
2023-01-15T11:58:32.969Z,74.72
2023-01-15T12:01:00.855Z,74.62
2023-01-15T12:03:31.412Z,77.01
2023-01-15T12:06:05.195Z,76.00
2023-01-15T12:08:31.782Z,74.09
2023-01-15T12:11:25.961Z,75.00
2023-01-15T12:14:02.499Z,72.68
2023-01-15T12:16:52.704Z,73.98
2023-01-15T12:19:22.726Z,73.05
2023-01-15T12:22:18.070Z,73.29
2023-01-15T12:25:46.547Z,73.24
2023-01-15T12:28:17.509Z,71.93
2023-01-15T12:31:12.960Z,71.94
2023-01-15T12:33:47.986Z,71.95
2023-01-15T12:36:23.521Z,71.77
2023-01-15T12:39:01.565Z,70.37
2023-01-15T12:41:56.624Z,70.70
2023-01-15T12:44:54.965Z,70.23
2023-01-15T12:47:28.432Z,69.89
2023-01-15T12:50:19.882Z,70.34
2023-01-15T12:52:52.073Z,69.35
2023-01-15T12:55:30.589Z,69.20
2023-01-15T12:58:01.150Z,70.37
2023-01-15T13:00:35.011Z,69.57
2023-01-15T13:03:23.019Z,69.53
2023-01-15T13:05:57.906Z,69.26
2023-01-15T13:08:31.306Z,69.30
2023-01-15T13:10:57.969Z,69.70
2023-01-15T13:13:29.568Z,69.81
2023-01-15T13:16:37.664Z,68.67
2023-01-15T13:19:35.125Z,68.71
2023-01-15T13:22:15.584Z,68.05
2023-01-15T13:24:42.046Z,68.07
2023-01-15T13:27:22.244Z,68.91
2023-01-15T13:30:01.621Z,68.11
2023-01-15T13:32:32.933Z,67.91
2023-01-15T13:35:10.458Z,67.01
2023-01-15T13:37:43.558Z,66.21
2023-01-15T13:40:35.038Z,66.46
2023-01-15T13:43:04.032Z,66.97
2023-01-15T13:45:33.620Z,67.23
2023-01-15T13:48:08.843Z,66.12
2023-01-15T13:50:40.510Z,65.18
2023-01-15T13:53:12.830Z,66.71
2023-01-15T13:55:43.524Z,66.33
2023-01-15T13:58:22.448Z,65.96
2023-01-15T14:00:49.301Z,66.39
2023-01-15T14:03:31.249Z,65.69
2023-01-15T14:06:08.839Z,65.47
2023-01-15T14:08:42.523Z,65.55
2023-01-15T14:11:39.218Z,66.45
2023-01-15T14:14:14.946Z,65.64
2023-01-15T14:16:47.524Z,65.65
2023-01-15T14:19:26.262Z,65.10
2023-01-15T14:22:30.146Z,64.28
2023-01-15T14:25:18.584Z,64.71
2023-01-15T14:28:11.451Z,65.41
2023-01-15T14:31:06.298Z,65.73
2023-01-15T14:33:50.203Z,64.72
2023-01-15T14:36:20.674Z,64.67
2023-01-15T14:38:55.806Z,66.27
2023-01-15T14:41:55.257Z,65.41
2023-01-15T14:44:33.975Z,65.12
2023-01-15T14:47:06.552Z,64.77
2023-01-15T14:49:49.786Z,65.17
2023-01-15T14:52:23.478Z,66.15
2023-01-15T14:54:51.855Z,65.81
2023-01-15T14:57:19.996Z,66.68
2023-01-15T14:59:55.046Z,66.34
2023-01-15T15:02:25.639Z,66.32
2023-01-15T15:04:56.100Z,67.31
2023-01-15T15:07:29.124Z,67.05
2023-01-15T15:10:15.950Z,67.20
2023-01-15T15:12:48.443Z,66.41
2023-01-15T15:15:27.343Z,66.24
2023-01-15T15:18:36.299Z,65.99
2023-01-15T15:21:08.231Z,66.10
2023-01-15T15:23:54.322Z,65.59
2023-01-15T15:26:23.880Z,64.83
2023-01-15T15:29:20.488Z,64.64
2023-01-15T15:32:00.350Z,64.30
2023-01-15T15:34:32.259Z,63.19
2023-01-15T15:37:01.983Z,63.38
2023-01-15T15:39:53.947Z,64.29
2023-01-15T15:42:43.694Z,63.19
2023-01-15T15:45:42.625Z,63.15
2023-01-15T15:48:41.224Z,64.00
2023-01-15T15:51:31.092Z,63.17
2023-01-15T15:54:05.277Z,63.29
2023-01-15T15:56:35.384Z,63.89
2023-01-15T15:59:05.231Z,62.65
2023-01-15T16:01:39.094Z,63.14
2023-01-15T16:04:06.006Z,63.31
2023-01-15T16:06:33.378Z,63.60
2023-01-15T16:09:04.566Z,63.46
2023-01-15T16:11:33.490Z,63.64
2023-01-15T16:14:05.217Z,63.36
2023-01-15T16:16:32.313Z,63.84
2023-01-15T16:19:00.649Z,64.79
2023-01-15T16:21:30.305Z,64.13
2023-01-15T16:24:03.177Z,64.36
2023-01-15T16:26:49.636Z,64.69
2023-01-15T16:29:23.667Z,65.15
2023-01-15T16:31:51.244Z,65.20
2023-01-15T16:34:27.707Z,65.23
2023-01-15T16:36:54.520Z,65.31
2023-01-15T16:39:36.184Z,65.37
2023-01-15T16:42:02.791Z,65.59
2023-01-15T16:44:46.845Z,65.19
2023-01-15T16:47:28.995Z,65.24
2023-01-15T16:50:23.745Z,65.39
2023-01-15T16:52:56.175Z,65.92
2023-01-15T16:55:45.131Z,65.92
2023-01-15T16:58:14.817Z,66.08
2023-01-15T17:00:44.507Z,65.45
2023-01-15T17:03:12.818Z,65.65
2023-01-15T17:05:39.588Z,66.17
2023-01-15T17:08:16.016Z,66.53
2023-01-15T17:10:53.241Z,65.61
2023-01-15T17:13:20.595Z,66.22
2023-01-15T17:15:47.697Z,66.19
2023-01-15T17:18:25.871Z,65.81
2023-01-15T17:20:52.661Z,66.05
2023-01-15T17:23:25.184Z,66.38
2023-01-15T17:25:52.306Z,68.38
2023-01-15T17:28:19.289Z,65.74
2023-01-15T17:30:48.429Z,65.24
2023-01-15T17:33:15.694Z,64.14
2023-01-15T17:35:42.531Z,65.17
2023-01-15T17:38:13.939Z,64.54
2023-01-15T17:40:40.800Z,64.23
2023-01-15T17:43:09.135Z,63.64
2023-01-15T17:45:35.772Z,63.97
2023-01-15T17:48:03.941Z,63.48
2023-01-15T17:50:30.589Z,63.36
2023-01-15T17:52:57.099Z,64.13
2023-01-15T17:55:42.653Z,64.13
2023-01-15T17:58:30.989Z,63.55
2023-01-15T18:01:16.550Z,64.01
2023-01-15T18:04:12.815Z,63.82
2023-01-15T18:06:43.034Z,64.12
2023-01-15T18:09:09.764Z,64.74
2023-01-15T18:11:36.351Z,64.48
2023-01-15T18:14:03.001Z,64.90
2023-01-15T18:16:30.025Z,65.08
2023-01-15T18:18:56.572Z,65.15
2023-01-15T18:21:23.739Z,65.32
2023-01-15T18:23:50.352Z,65.70
2023-01-15T18:26:16.932Z,65.03
2023-01-15T18:28:45.268Z,64.43
2023-01-15T18:31:11.919Z,65.14
2023-01-15T18:33:38.599Z,64.93
2023-01-15T18:36:10.504Z,65.23
2023-01-15T18:38:43.766Z,64.35
2023-01-15T18:41:13.109Z,64.52
2023-01-15T18:43:58.291Z,65.57
2023-01-15T18:46:43.051Z,64.71
2023-01-15T18:49:09.592Z,67.33
2023-01-15T18:51:36.132Z,64.80
2023-01-15T18:54:02.690Z,63.99
2023-01-15T18:56:47.019Z,63.99
2023-01-15T18:59:14.571Z,62.52
2023-01-15T19:01:42.149Z,63.70
2023-01-15T19:04:11.008Z,63.94
2023-01-15T19:06:39.995Z,64.30
2023-01-15T19:09:08.339Z,64.21
2023-01-15T19:11:35.377Z,64.35
2023-01-15T19:14:20.911Z,63.92
2023-01-15T19:17:06.185Z,63.57
2023-01-15T19:19:32.767Z,64.11
2023-01-15T19:22:18.017Z,65.01
2023-01-15T19:24:46.157Z,63.90
2023-01-15T19:27:13.262Z,64.19
2023-01-15T19:29:42.807Z,64.52
2023-01-15T19:32:09.327Z,64.24
2023-01-15T19:34:35.975Z,64.20
2023-01-15T19:37:02.515Z,64.84
2023-01-15T19:39:30.231Z,64.40
2023-01-15T19:42:17.605Z,64.51
2023-01-15T19:45:02.856Z,63.98
2023-01-15T19:47:55.135Z,64.37
2023-01-15T19:50:26.160Z,64.25
2023-01-15T19:52:54.765Z,63.47
2023-01-15T19:55:23.882Z,64.54
2023-01-15T19:57:57.463Z,63.76
2023-01-15T20:00:24.385Z,64.02
2023-01-15T20:02:51.101Z,64.13
2023-01-15T20:05:20.376Z,64.06
2023-01-15T20:07:46.929Z,64.25
2023-01-15T20:10:16.559Z,64.37
2023-01-15T20:13:02.281Z,64.07
2023-01-15T20:15:29.844Z,63.98
2023-01-15T20:17:57.464Z,63.54
2023-01-15T20:20:24.810Z,63.79
2023-01-15T20:22:52.427Z,64.02
2023-01-15T20:25:18.984Z,64.17
2023-01-15T20:27:45.499Z,63.56
2023-01-15T20:30:17.326Z,63.93
2023-01-15T20:32:45.588Z,63.24
2023-01-15T20:35:15.536Z,63.98
2023-01-15T20:37:42.147Z,63.02
2023-01-15T20:40:09.692Z,63.74
2023-01-15T20:42:54.732Z,63.42
2023-01-15T20:45:21.585Z,63.03
2023-01-15T20:48:06.755Z,64.06
2023-01-15T20:50:36.188Z,63.22
2023-01-15T20:53:04.412Z,63.41
2023-01-15T20:55:45.704Z,63.49
2023-01-15T20:58:20.782Z,63.45
2023-01-15T21:00:47.430Z,63.44
2023-01-15T21:03:14.055Z,63.08
2023-01-15T21:05:40.636Z,63.41
2023-01-15T21:08:07.177Z,63.23
2023-01-15T21:10:33.726Z,63.96
2023-01-15T21:13:00.306Z,63.33
2023-01-15T21:15:26.843Z,63.61
2023-01-15T21:17:53.431Z,63.00
2023-01-15T21:20:19.973Z,63.49
2023-01-15T21:22:47.463Z,64.30
2023-01-15T21:25:14.038Z,63.79
2023-01-15T21:27:40.880Z,64.62
2023-01-15T21:30:09.361Z,64.36
2023-01-15T21:32:36.035Z,63.67
2023-01-15T21:35:02.536Z,63.74
2023-01-15T21:37:29.172Z,64.31
2023-01-15T21:39:55.688Z,63.97
2023-01-15T21:42:40.709Z,64.74
2023-01-15T21:45:08.309Z,64.97
2023-01-15T21:47:36.861Z,65.74
2023-01-15T21:50:05.352Z,65.49
2023-01-15T21:52:33.721Z,64.84
2023-01-15T21:55:00.699Z,65.24
2023-01-15T21:57:29.341Z,65.18
2023-01-15T21:59:56.102Z,64.67
2023-01-15T22:02:23.439Z,64.74
2023-01-15T22:04:50.363Z,65.67
2023-01-15T22:07:18.333Z,67.12
2023-01-15T22:09:45.220Z,66.64
2023-01-15T22:12:13.104Z,66.49
2023-01-15T22:14:39.695Z,66.31
2023-01-15T22:17:07.212Z,66.22
2023-01-15T22:19:34.263Z,67.25
2023-01-15T22:22:09.132Z,66.83
2023-01-15T22:24:38.073Z,67.66
2023-01-15T22:27:06.735Z,67.37
2023-01-15T22:29:40.568Z,66.31
2023-01-15T22:32:09.642Z,67.09
2023-01-15T22:34:36.575Z,67.89
2023-01-15T22:37:03.259Z,67.91
2023-01-15T22:39:30.272Z,66.44
2023-01-15T22:42:15.268Z,68.23
2023-01-15T22:44:44.109Z,67.58
2023-01-15T22:47:11.804Z,68.07
2023-01-15T22:49:38.319Z,69.31
2023-01-15T22:52:05.222Z,67.47
2023-01-15T22:54:31.832Z,66.87
2023-01-15T22:56:58.502Z,67.18
2023-01-15T22:59:25.192Z,68.61
2023-01-15T23:01:51.817Z,68.84
2023-01-15T23:04:21.583Z,68.45
2023-01-15T23:06:49.185Z,68.73
2023-01-15T23:09:15.742Z,69.40
2023-01-15T23:11:42.340Z,67.72
2023-01-15T23:14:11.504Z,67.79
2023-01-15T23:16:38.841Z,66.69
2023-01-15T23:19:06.169Z,67.23
2023-01-15T23:21:33.494Z,67.73
2023-01-15T23:24:02.093Z,68.96
2023-01-15T23:26:31.740Z,68.10
2023-01-15T23:28:59.216Z,68.32
2023-01-15T23:31:27.533Z,68.78
2023-01-15T23:33:54.120Z,68.16
2023-01-15T23:36:21.113Z,69.83
2023-01-15T23:38:47.693Z,68.79
2023-01-15T23:41:16.882Z,68.70
2023-01-15T23:44:02.478Z,69.79
2023-01-15T23:46:32.741Z,68.54
2023-01-15T23:49:01.039Z,69.60
2023-01-15T23:51:27.604Z,68.73
2023-01-15T23:53:55.490Z,69.45
2023-01-15T23:56:22.722Z,69.35
2023-01-15T23:58:49.274Z,68.33
